createdAt,value
2023-03-17T00:01:54.299Z,5.80
2023-03-17T00:04:24.342Z,8.32
2023-03-17T00:06:51.941Z,6.60
2023-03-17T00:09:20.114Z,6.88
2023-03-17T00:11:47.160Z,7.95
2023-03-17T00:14:14.568Z,6.60
2023-03-17T00:16:43.843Z,7.47
2023-03-17T00:19:21.687Z,6.22
2023-03-17T00:21:49.410Z,6.43
2023-03-17T00:24:17.256Z,6.38
2023-03-17T00:26:44.342Z,7.53
2023-03-17T00:29:11.273Z,7.47
2023-03-17T00:31:39.454Z,5.97
2023-03-17T00:34:07.510Z,7.25
2023-03-17T00:36:35.512Z,5.25
2023-03-17T00:39:02.312Z,8.40
2023-03-17T00:41:29.652Z,6.32
2023-03-17T00:43:57.612Z,6.75
2023-03-17T00:46:35.735Z,7.63
2023-03-17T00:49:23.905Z,7.20
2023-03-17T00:51:51.079Z,8.55
2023-03-17T00:54:20.675Z,7.03
2023-03-17T00:56:49.478Z,5.47
2023-03-17T00:59:40.997Z,8.20
2023-03-17T01:02:14.136Z,5.78
2023-03-17T01:04:44.076Z,7.38
2023-03-17T01:07:14.092Z,6.55
2023-03-17T01:09:41.879Z,6.72
2023-03-17T01:12:12.967Z,7.10
2023-03-17T01:14:40.970Z,6.72
2023-03-17T01:17:17.098Z,7.68
2023-03-17T01:19:45.350Z,5.43
2023-03-17T01:22:12.437Z,6.50
2023-03-17T01:24:40.214Z,6.40
2023-03-17T01:27:07.841Z,7.03
2023-03-17T01:29:34.968Z,8.07
2023-03-17T01:32:02.014Z,8.15
2023-03-17T01:34:29.163Z,9.98
2023-03-17T01:36:55.964Z,6.10
2023-03-17T01:39:22.774Z,6.63
2023-03-17T01:41:49.798Z,6.13
2023-03-17T01:44:18.512Z,6.80
2023-03-17T01:46:47.627Z,10.18
2023-03-17T01:49:17.287Z,5.70
2023-03-17T01:51:59.164Z,5.78
2023-03-17T01:54:50.363Z,5.63
2023-03-17T01:57:39.965Z,9.15
2023-03-17T02:00:09.490Z,5.63
2023-03-17T02:02:42.673Z,7.57
2023-03-17T02:05:12.372Z,6.75
2023-03-17T02:07:40.587Z,12.15
2023-03-17T02:10:09.892Z,6.28
2023-03-17T02:12:37.258Z,5.60
2023-03-17T02:15:05.343Z,5.90
2023-03-17T02:17:32.181Z,5.45
2023-03-17T02:20:18.468Z,6.03
2023-03-17T02:22:48.694Z,5.30
2023-03-17T02:25:17.626Z,5.75
2023-03-17T02:27:48.200Z,8.45
2023-03-17T02:30:21.170Z,6.93
2023-03-17T02:32:48.023Z,6.18
2023-03-17T02:35:16.277Z,9.27
2023-03-17T02:37:46.965Z,7.55
2023-03-17T02:40:14.976Z,8.98
2023-03-17T02:42:42.220Z,7.32
2023-03-17T02:45:11.672Z,9.57
2023-03-17T02:47:39.047Z,7.45
2023-03-17T02:50:07.823Z,9.68
2023-03-17T02:52:35.873Z,5.50
2023-03-17T02:55:02.770Z,8.15
2023-03-17T02:57:29.559Z,9.10
2023-03-17T02:59:56.709Z,7.75
2023-03-17T03:02:23.533Z,9.55
2023-03-17T03:04:50.447Z,7.95
2023-03-17T03:07:17.380Z,5.65
2023-03-17T03:09:44.351Z,8.48
2023-03-17T03:12:11.814Z,8.75
2023-03-17T03:14:38.719Z,7.22
2023-03-17T03:17:05.577Z,6.43
2023-03-17T03:19:32.458Z,7.50
2023-03-17T03:21:59.336Z,6.53
2023-03-17T03:24:26.227Z,9.05
2023-03-17T03:26:53.034Z,6.57
2023-03-17T03:29:20.019Z,7.57
2023-03-17T03:31:48.669Z,7.78
2023-03-17T03:34:16.485Z,6.13
2023-03-17T03:36:43.566Z,6.78
2023-03-17T03:39:13.098Z,9.10
2023-03-17T03:41:41.252Z,6.65
2023-03-17T03:44:08.224Z,7.15
2023-03-17T03:46:35.287Z,7.80
2023-03-17T03:49:02.265Z,7.82
2023-03-17T03:51:29.234Z,8.43
2023-03-17T03:53:56.197Z,9.63
2023-03-17T03:56:22.996Z,6.40
2023-03-17T03:58:49.959Z,7.55
2023-03-17T04:01:16.929Z,8.95
2023-03-17T04:03:43.698Z,7.53
2023-03-17T04:06:11.410Z,6.97
2023-03-17T04:08:38.459Z,7.40
2023-03-17T04:11:05.416Z,8.75
2023-03-17T04:13:32.466Z,8.10
2023-03-17T04:15:59.322Z,7.85
2023-03-17T04:18:26.421Z,9.77
2023-03-17T04:20:53.505Z,6.32
2023-03-17T04:23:20.469Z,8.52
2023-03-17T04:25:47.641Z,7.63
2023-03-17T04:28:14.416Z,9.60
2023-03-17T04:30:41.660Z,7.60
2023-03-17T04:33:08.834Z,10.43
2023-03-17T04:35:35.743Z,7.25
2023-03-17T04:38:02.949Z,7.68
2023-03-17T04:40:30.119Z,8.48
2023-03-17T04:42:57.181Z,9.88
2023-03-17T04:45:24.523Z,9.73
2023-03-17T04:47:54.428Z,7.50
2023-03-17T04:50:23.745Z,6.88
2023-03-17T04:52:51.505Z,7.30
2023-03-17T04:55:18.665Z,8.15
2023-03-17T04:57:45.982Z,9.00
2023-03-17T05:00:14.359Z,8.45
2023-03-17T05:02:45.418Z,7.57
2023-03-17T05:05:13.099Z,8.35
2023-03-17T05:07:40.314Z,9.30
2023-03-17T05:10:07.959Z,10.48
2023-03-17T05:12:36.084Z,9.38
2023-03-17T05:15:06.674Z,8.63
2023-03-17T05:17:33.849Z,9.57
2023-03-17T05:20:01.515Z,12.50
2023-03-17T05:22:33.385Z,8.95
2023-03-17T05:25:00.239Z,9.25
2023-03-17T05:27:27.192Z,8.15
2023-03-17T05:29:54.088Z,10.88
2023-03-17T05:32:21.046Z,12.70
2023-03-17T05:34:48.701Z,13.00
2023-03-17T05:37:15.795Z,11.80
2023-03-17T05:39:43.741Z,8.82
2023-03-17T05:42:10.701Z,9.85
2023-03-17T05:44:38.163Z,13.60
2023-03-17T05:47:05.318Z,10.27
2023-03-17T05:49:40.120Z,10.52
2023-03-17T05:52:07.575Z,10.35
2023-03-17T05:54:34.797Z,13.27
2023-03-17T05:57:05.369Z,11.32
2023-03-17T05:59:33.814Z,11.70
2023-03-17T06:02:00.728Z,9.35
2023-03-17T06:04:27.594Z,14.35
2023-03-17T06:06:54.516Z,11.18
2023-03-17T06:09:21.391Z,9.18
2023-03-17T06:11:53.172Z,9.77
2023-03-17T06:14:20.333Z,9.93
2023-03-17T06:16:47.144Z,11.30
2023-03-17T06:19:16.904Z,10.48
2023-03-17T06:21:48.438Z,9.93
2023-03-17T06:24:15.685Z,11.10
2023-03-17T06:26:45.190Z,9.82
2023-03-17T06:29:16.241Z,11.90
2023-03-17T06:31:43.333Z,10.57
2023-03-17T06:34:10.159Z,8.57
2023-03-17T06:36:40.396Z,8.55
2023-03-17T06:39:11.052Z,13.05
2023-03-17T06:41:38.083Z,10.68
2023-03-17T06:44:05.608Z,13.40
2023-03-17T06:46:33.391Z,11.52
2023-03-17T06:49:03.752Z,10.50
2023-03-17T06:51:32.476Z,10.20
2023-03-17T06:53:59.479Z,9.57
2023-03-17T06:56:30.366Z,12.85
2023-03-17T06:58:59.778Z,13.02
2023-03-17T07:01:27.635Z,8.48
2023-03-17T07:03:55.489Z,10.40
2023-03-17T07:06:23.689Z,8.70
2023-03-17T07:08:51.013Z,10.25
2023-03-17T07:11:17.930Z,10.07
2023-03-17T07:13:45.397Z,10.98
2023-03-17T07:16:15.192Z,8.85
2023-03-17T07:18:42.637Z,10.70
2023-03-17T07:21:09.969Z,10.48
2023-03-17T07:23:37.445Z,10.30
2023-03-17T07:26:04.955Z,8.40
2023-03-17T07:28:32.626Z,8.73
2023-03-17T07:31:00.721Z,11.40
2023-03-17T07:33:27.653Z,11.07
2023-03-17T07:35:54.714Z,8.45
2023-03-17T07:38:22.012Z,8.85
2023-03-17T07:40:49.322Z,9.52
2023-03-17T07:43:17.790Z,9.40
2023-03-17T07:45:45.582Z,11.98
2023-03-17T07:48:12.483Z,11.13
2023-03-17T07:50:39.772Z,7.85
2023-03-17T07:53:10.986Z,10.38
2023-03-17T07:55:39.010Z,9.02
2023-03-17T07:58:06.534Z,12.05
2023-03-17T08:00:36.214Z,9.93
2023-03-17T08:03:10.420Z,8.90
2023-03-17T08:05:38.148Z,10.07
2023-03-17T08:08:08.292Z,8.90
2023-03-17T08:10:36.109Z,11.82
2023-03-17T08:13:03.212Z,8.20
2023-03-17T08:15:31.377Z,6.13
2023-03-17T08:17:58.112Z,7.97
2023-03-17T08:20:25.073Z,9.93
2023-03-17T08:22:57.237Z,7.78
2023-03-17T08:25:24.722Z,9.25
2023-03-17T08:27:51.785Z,12.32
2023-03-17T08:30:18.882Z,5.35
2023-03-17T08:32:45.867Z,8.05
2023-03-17T08:35:16.109Z,6.60
2023-03-17T08:37:47.631Z,6.53
2023-03-17T08:40:19.874Z,9.90
2023-03-17T08:42:49.237Z,8.32
2023-03-17T08:45:18.506Z,6.45
2023-03-17T08:47:46.845Z,7.85
2023-03-17T08:50:21.064Z,7.72
2023-03-17T08:52:48.886Z,6.45
2023-03-17T08:55:16.329Z,5.68
2023-03-17T08:57:44.765Z,7.40
2023-03-17T09:00:14.588Z,7.00
2023-03-17T09:02:43.529Z,6.32
2023-03-17T09:05:13.946Z,8.02
2023-03-17T09:07:44.229Z,7.10
2023-03-17T09:10:12.068Z,7.78
2023-03-17T09:12:38.968Z,8.00
2023-03-17T09:15:07.663Z,6.85
2023-03-17T09:17:34.754Z,6.75
2023-03-17T09:20:01.713Z,10.20
2023-03-17T09:22:28.502Z,7.35
2023-03-17T09:24:56.193Z,11.02
2023-03-17T09:27:23.117Z,7.90
2023-03-17T09:29:49.850Z,8.15
2023-03-17T09:32:16.755Z,7.30
2023-03-17T09:34:43.962Z,8.05
2023-03-17T09:37:16.517Z,8.32
2023-03-17T09:39:44.975Z,5.60
2023-03-17T09:42:22.792Z,7.68
2023-03-17T09:45:31.531Z,7.63
2023-03-17T09:48:01.228Z,5.57
2023-03-17T09:50:51.033Z,7.88
2023-03-17T09:53:34.273Z,6.68
2023-03-17T09:56:08.002Z,7.53
2023-03-17T09:58:39.765Z,6.13
2023-03-17T10:01:10.434Z,7.50
2023-03-17T10:03:37.663Z,6.25
2023-03-17T10:06:39.984Z,9.80
2023-03-17T10:09:40.696Z,6.43
2023-03-17T10:12:35.115Z,6.97
2023-03-17T10:15:05.165Z,5.85
2023-03-17T10:17:39.412Z,6.65
2023-03-17T10:20:16.163Z,6.38
2023-03-17T10:22:55.966Z,7.30
2023-03-17T10:25:32.764Z,7.88
2023-03-17T10:28:11.451Z,6.75
2023-03-17T10:30:39.054Z,6.82
2023-03-17T10:33:09.745Z,6.60
2023-03-17T10:35:39.750Z,7.00
2023-03-17T10:38:18.907Z,7.40
2023-03-17T10:40:54.714Z,10.90
2023-03-17T10:43:23.210Z,7.95
2023-03-17T10:46:16.477Z,7.20
2023-03-17T10:48:52.657Z,9.70
2023-03-17T10:51:36.449Z,6.55
2023-03-17T10:54:14.711Z,8.40
2023-03-17T10:56:42.800Z,6.60
2023-03-17T10:59:27.998Z,7.25
2023-03-17T11:02:05.770Z,8.10
2023-03-17T11:04:42.579Z,9.30
2023-03-17T11:07:40.348Z,6.00
2023-03-17T11:10:29.328Z,7.15
2023-03-17T11:13:00.803Z,7.85
2023-03-17T11:16:00.434Z,8.13
2023-03-17T11:18:41.095Z,6.38
2023-03-17T11:21:35.876Z,6.00
2023-03-17T11:24:21.080Z,7.10
2023-03-17T11:26:57.658Z,10.70
2023-03-17T11:29:27.546Z,8.43
2023-03-17T11:31:59.688Z,8.13
2023-03-17T11:34:38.082Z,9.18
2023-03-17T11:37:23.450Z,7.18
2023-03-17T11:40:19.812Z,7.00
2023-03-17T11:43:21.616Z,7.63
2023-03-17T11:45:54.992Z,10.13
2023-03-17T11:48:42.439Z,8.90
2023-03-17T11:51:37.805Z,9.60
2023-03-17T11:54:14.210Z,9.80
2023-03-17T11:59:37.265Z,9.43
2023-03-17T12:02:21.273Z,7.20
2023-03-17T12:05:06.340Z,10.65
2023-03-17T12:07:43.694Z,10.60
2023-03-17T12:10:23.315Z,9.32
2023-03-17T12:13:17.332Z,10.32
2023-03-17T12:15:49.664Z,9.98
2023-03-17T12:18:28.420Z,7.63
2023-03-17T12:21:42.588Z,8.18
2023-03-17T12:24:38.842Z,10.20
2023-03-17T12:27:39.117Z,10.27
2023-03-17T12:30:54.748Z,9.90
2023-03-17T12:33:28.959Z,11.52
2023-03-17T12:35:58.509Z,12.43
2023-03-17T12:38:38.519Z,13.85
2023-03-17T12:41:20.818Z,15.20
2023-03-17T12:44:11.725Z,15.57
2023-03-17T12:47:12.930Z,13.57
2023-03-17T12:49:46.286Z,14.88
2023-03-17T12:52:56.181Z,15.50
2023-03-17T12:55:26.919Z,12.25
2023-03-17T12:58:03.873Z,17.73
2023-03-17T13:01:02.504Z,15.35
2023-03-17T13:03:34.003Z,12.50
2023-03-17T13:06:11.053Z,19.10
2023-03-17T13:08:43.867Z,15.25
2023-03-17T13:11:46.722Z,13.60
2023-03-17T13:14:27.143Z,14.50
2023-03-17T13:17:24.601Z,13.38
2023-03-17T13:23:11.784Z,13.20
2023-03-17T13:25:48.397Z,13.65
2023-03-17T13:31:10.179Z,16.38
2023-03-17T13:33:52.145Z,16.10
2023-03-17T13:36:22.979Z,14.23
2023-03-17T13:39:18.954Z,11.75
2023-03-17T13:42:17.791Z,9.73
2023-03-17T13:44:45.463Z,11.15
2023-03-17T13:47:31.580Z,14.95
2023-03-17T13:50:08.500Z,11.68
2023-03-17T13:52:53.168Z,7.85
2023-03-17T13:55:20.645Z,11.93
2023-03-17T13:58:06.376Z,10.25
2023-03-17T14:00:59.975Z,14.63
2023-03-17T14:04:03.975Z,9.48
2023-03-17T14:06:34.436Z,9.23
2023-03-17T14:09:08.645Z,10.25
2023-03-17T14:11:41.036Z,8.40
2023-03-17T14:14:32.802Z,10.13
2023-03-17T14:17:15.544Z,9.68
2023-03-17T14:20:08.218Z,7.78
2023-03-17T14:22:45.568Z,8.25
2023-03-17T14:25:22.191Z,7.13
2023-03-17T14:30:24.805Z,8.85
2023-03-17T14:32:59.498Z,10.43
2023-03-17T14:35:30.936Z,11.10
2023-03-17T14:37:58.442Z,8.48
2023-03-17T14:40:28.322Z,7.35
2023-03-17T14:42:55.774Z,8.27
2023-03-17T14:45:27.959Z,7.43
2023-03-17T14:47:55.448Z,8.82
2023-03-17T14:50:29.713Z,7.32
2023-03-17T14:52:58.887Z,8.10
2023-03-17T14:55:40.269Z,8.80
2023-03-17T14:58:42.491Z,10.65
2023-03-17T15:01:22.363Z,10.93
2023-03-17T15:03:58.806Z,9.23
2023-03-17T15:08:57.638Z,8.23
2023-03-17T15:11:36.611Z,8.90
2023-03-17T15:14:35.360Z,9.00
2023-03-17T15:17:05.577Z,8.13
2023-03-17T15:19:41.081Z,8.00
2023-03-17T15:22:23.701Z,8.43
2023-03-17T15:25:04.582Z,10.60
2023-03-17T15:27:32.367Z,10.20
2023-03-17T15:29:59.404Z,10.10
2023-03-17T15:32:31.165Z,9.05
2023-03-17T15:34:58.427Z,9.80
2023-03-17T15:37:31.069Z,10.93
2023-03-17T15:39:59.940Z,9.32
2023-03-17T15:42:38.524Z,11.82
2023-03-17T15:45:06.977Z,9.05
2023-03-17T15:47:39.883Z,9.88
2023-03-17T15:50:29.344Z,9.88
2023-03-17T15:53:01.489Z,8.85
2023-03-17T15:55:30.501Z,10.85
2023-03-17T15:57:58.526Z,8.68
2023-03-17T16:00:29.415Z,10.75
2023-03-17T16:03:04.364Z,11.20
2023-03-17T16:05:34.046Z,10.43
2023-03-17T16:08:02.521Z,14.60
2023-03-17T16:10:32.448Z,9.23
2023-03-17T16:12:59.653Z,11.20
2023-03-17T16:15:31.327Z,12.07
2023-03-17T16:18:04.317Z,12.25
2023-03-17T16:20:39.102Z,9.02
2023-03-17T16:23:16.680Z,10.55
2023-03-17T16:25:44.016Z,10.45
2023-03-17T16:28:16.581Z,10.10
2023-03-17T16:30:43.876Z,12.48
2023-03-17T16:33:21.718Z,13.95
2023-03-17T16:35:49.374Z,12.70
2023-03-17T16:38:22.158Z,9.23
2023-03-17T16:40:52.097Z,12.40
2023-03-17T16:43:30.399Z,9.95
2023-03-17T17:26:57.144Z,10.23
2023-03-17T17:29:23.994Z,9.77
2023-03-17T17:31:51.052Z,7.97
2023-03-17T17:34:18.065Z,13.73
2023-03-17T17:36:45.195Z,7.82
2023-03-17T17:39:12.108Z,10.25
2023-03-17T17:41:39.041Z,8.32
2023-03-17T17:44:05.985Z,8.18
2023-03-17T17:46:33.106Z,7.45
2023-03-17T17:49:00.244Z,10.63
2023-03-17T17:51:29.043Z,7.57
2023-03-17T17:53:56.674Z,8.38
2023-03-17T17:56:24.350Z,8.13
2023-03-17T17:58:51.271Z,9.27
2023-03-17T18:01:22.056Z,9.05
2023-03-17T18:03:49.241Z,10.73
2023-03-17T18:06:17.994Z,7.30
2023-03-17T18:08:44.827Z,10.88
2023-03-17T18:11:13.811Z,8.10
2023-03-17T18:13:41.489Z,8.85
2023-03-17T18:16:10.106Z,7.47
2023-03-17T18:18:40.575Z,9.77
2023-03-17T18:21:08.339Z,9.02
2023-03-17T18:23:36.492Z,10.40
2023-03-17T18:26:06.059Z,6.22
2023-03-17T18:28:33.054Z,5.55
2023-03-17T18:31:07.024Z,7.00
2023-03-17T18:33:34.258Z,6.80
2023-03-17T18:36:01.629Z,8.98
2023-03-17T18:38:28.550Z,7.45
2023-03-17T18:40:55.510Z,9.48
2023-03-17T18:43:22.522Z,7.45
2023-03-17T19:31:02.198Z,11.00
2023-03-17T19:33:29.265Z,8.65
2023-03-17T19:35:58.667Z,13.15
2023-03-17T19:38:27.148Z,9.27
2023-03-17T19:40:54.657Z,8.75
2023-03-17T19:43:39.126Z,8.75
2023-03-17T19:46:07.920Z,10.43
2023-03-17T19:48:36.448Z,11.25
2023-03-17T19:51:03.515Z,10.75
2023-03-17T19:53:30.792Z,9.90
2023-03-17T19:55:57.718Z,10.05
2023-03-17T19:58:24.671Z,9.35
2023-03-17T20:00:52.340Z,9.70
2023-03-17T20:03:19.361Z,13.55
2023-03-17T20:05:46.895Z,11.50
2023-03-17T20:08:15.027Z,9.52
2023-03-17T20:10:42.112Z,9.50
2023-03-17T20:13:09.153Z,11.75
2023-03-17T20:15:36.851Z,16.23
2023-03-17T20:18:03.969Z,11.80
2023-03-17T20:20:31.481Z,12.32
2023-03-17T20:22:58.497Z,11.80
2023-03-17T20:25:25.756Z,10.98
2023-03-17T20:27:53.463Z,11.50
2023-03-17T20:30:22.572Z,14.52
2023-03-17T20:32:49.529Z,11.93
2023-03-17T20:35:16.804Z,12.55
2023-03-17T20:37:43.683Z,12.85
2023-03-17T20:40:11.387Z,10.70
2023-03-17T20:42:38.291Z,14.27
2023-03-17T20:45:05.743Z,11.27
2023-03-17T20:47:32.627Z,12.15
2023-03-17T20:50:00.594Z,12.25
2023-03-17T20:52:30.101Z,13.32
2023-03-17T20:54:59.419Z,13.57
2023-03-17T20:57:26.525Z,12.20
2023-03-17T20:59:53.493Z,10.77
2023-03-17T21:02:20.849Z,11.70
2023-03-17T21:04:49.285Z,15.38
2023-03-17T21:07:18.778Z,13.18
2023-03-17T21:09:46.760Z,11.75
2023-03-17T21:12:19.142Z,15.27
2023-03-17T21:14:48.317Z,13.57
2023-03-17T21:17:19.811Z,13.23
2023-03-17T21:19:49.546Z,12.95
2023-03-17T21:22:18.048Z,10.18
2023-03-17T21:24:44.933Z,21.23
2023-03-17T21:27:12.650Z,18.38
2023-03-17T21:29:40.169Z,19.90
2023-03-17T21:32:08.570Z,11.27
2023-03-17T21:34:37.110Z,19.35
2023-03-17T21:37:06.558Z,11.48
2023-03-17T21:39:34.050Z,12.48
2023-03-17T21:42:02.136Z,13.43
2023-03-17T21:44:29.741Z,9.35
2023-03-17T21:46:56.636Z,13.10
2023-03-17T21:49:24.781Z,13.52
2023-03-17T21:51:51.851Z,11.00
2023-03-17T21:54:19.502Z,11.95
2023-03-17T21:56:47.033Z,14.15
2023-03-17T21:59:15.403Z,12.25
2023-03-17T22:01:43.875Z,10.68
2023-03-17T22:04:11.452Z,12.07
2023-03-17T22:06:38.339Z,12.82
2023-03-17T22:09:06.061Z,11.75
2023-03-17T22:11:32.808Z,10.43
2023-03-17T22:13:59.784Z,12.88
2023-03-17T22:16:27.835Z,12.93
2023-03-17T22:18:54.914Z,11.90
2023-03-17T22:21:23.514Z,13.18
2023-03-17T22:23:50.853Z,10.75
2023-03-17T22:26:19.996Z,11.45
2023-03-17T22:28:48.542Z,9.82
2023-03-17T22:31:21.909Z,13.95
2023-03-17T22:33:50.682Z,10.48
2023-03-17T22:36:18.017Z,12.90
2023-03-17T22:38:46.266Z,14.02
2023-03-17T22:41:18.961Z,12.40
2023-03-17T22:43:47.133Z,15.07
2023-03-17T22:46:15.218Z,13.70
2023-03-17T22:48:42.269Z,16.45
2023-03-17T22:51:16.514Z,13.75
2023-03-17T22:53:44.694Z,12.77
2023-03-17T22:56:13.105Z,14.50
2023-03-17T22:58:41.079Z,10.80
2023-03-17T23:01:09.740Z,17.42
2023-03-17T23:03:37.318Z,13.77
2023-03-17T23:06:05.624Z,12.90
2023-03-17T23:08:35.353Z,12.95
2023-03-17T23:11:05.961Z,16.10
2023-03-17T23:13:32.952Z,12.55
2023-03-17T23:15:59.897Z,16.55
2023-03-17T23:18:27.007Z,13.43
2023-03-17T23:20:53.851Z,15.88
2023-03-17T23:23:20.616Z,18.83
2023-03-17T23:25:47.524Z,16.90
2023-03-17T23:28:15.632Z,16.08
2023-03-17T23:30:43.566Z,13.30
2023-03-17T23:33:10.589Z,13.10
2023-03-17T23:35:38.100Z,11.52
2023-03-17T23:38:05.862Z,11.30
2023-03-17T23:40:36.100Z,20.33
2023-03-17T23:43:05.522Z,13.85
2023-03-17T23:45:33.688Z,9.38
2023-03-17T23:48:01.108Z,9.10
2023-03-17T23:50:27.994Z,9.70
2023-03-17T23:52:54.779Z,10.85
2023-03-17T23:55:21.579Z,11.02
2023-03-17T23:57:49.330Z,11.45
